Aeroporto :
LOGIN :

Iscrizione | Disclaimer

   EN    FR    IT 

 










Sommario :    VFR   VFR Marginale   IFR   IFR Intensivo   IFR Molto Intensivo
Visibilità : 
Base nubi : 
>= 8 km
>= 3000ft
5 / 8 km
1000 / 3000 ft
1500m / 5 km
500 / 1000 ft
800 / 1500m
200 / 500 ft
< 800m
< 200 ft
Simboli :   Temporali  Nebbia  Neve Forte  Precipitazioni Forti  Vento > 20 kt
SIGMETs :   Varie  Temporali  Ghiacco  Turbolenza  Onda orograficha  Ceneri Vulcaniche






- Altitudine del aeroporto : 821 ft
- Codice IATA : LYS


LFLL - Lyon St Exupéry / Satolas

ULTIMO METAR :
  • 132300Z 16003KT CAVOK 21/18 Q1016 NOSIG

METARs OBSOLETI :
  • 132230Z 20003KT CAVOK 21/17 Q1016 NOSIG
  • 132200Z 14002KT CAVOK 22/17 Q1016 NOSIG
  • 132130Z 17001KT CAVOK 22/17 Q1016 NOSIG
  • 132100Z 02002KT CAVOK 22/17 Q1017 NOSIG
  • 132030Z 19003KT CAVOK 23/17 Q1017 NOSIG

TAF TAF LFLL
Valido dal 13 a 18 ore il 15 a 00 ore UTC


131700Z 1318/1424 16010KT 9999 FEW080TCU BKN120
PROB40
TEMPO 1318/1320 5000 TSRA BKN070CB
PROB40
TEMPO 1318/1324 SHRA SCT070TCU
BECMG 1322/1324 BKN050
BECMG 1410/1412 36006KT
BECMG 1413/1415 CAVOK



MetMap, La meteo Aeronautica in un colpo d'occhio ! - Copyright ORBIFLY Dicembre 2007 - Disclaimer

ORBIFLY MET'MAP TEAM :

Programmazione e sviluppo : Alexandra Zaïnal
Concezione : Baudouin d'Aumeries
Aiuto per la programmazione : Marc-Olivier Méhu
Supporto tecnico e logistico : Manuel Goepfert
Aiuto per la traduzione : Arnaldo La Scala

Contatto : metmap@orbifly.com




FONTI E CREDITI :

   NOAA